Time;durP1;ratioP1;P1;durP2;ratioP2;P2;SDS_P1;SDS_P2;PMS_P1;PMS_P2;Temp;Humidity;BMP_temperature;BMP_pressure;BME280_temperature;BME280_humidity;BME280_pressure;Samples;Min_cycle;Max_cycle;Signal;HPM_P1;HPM_P2
2021/05/31 00:02:03;;;;;;;12.73;5.40;;;;;;;;;;13029823;22;20661;-84
2021/05/31 00:07:08;;;;;;;11.07;5.33;;;;;;;;;;13012309;22;20209;-83
2021/05/31 00:12:12;;;;;;;7.70;5.20;;;;;;;;;;13033209;22;20176;-83
2021/05/31 00:17:15;;;;;;;11.23;5.43;;;;;;;;;;13033980;22;20178;-83
2021/05/31 00:22:19;;;;;;;8.43;5.30;;;;;;;;;;13011294;22;20180;-83
2021/05/31 00:27:21;;;;;;;8.30;5.73;;;;;;;;;;13033361;22;20216;-83
2021/05/31 00:32:25;;;;;;;8.47;5.43;;;;;;;;;;13028239;22;20188;-83
2021/05/31 00:37:27;;;;;;;10.23;5.60;;;;;;;;;;13034316;22;20512;-83
2021/05/31 00:42:30;;;;;;;11.20;5.97;;;;;;;;;;13033158;22;20186;-82
2021/05/31 00:47:33;;;;;;;9.87;5.83;;;;;;;;;;13032279;22;20232;-82
2021/05/31 00:52:36;;;;;;;10.83;5.80;;;;;;;;;;13011579;22;20198;-83
2021/05/31 00:57:38;;;;;;;10.63;6.53;;;;;;;;;;13032436;22;20669;-82
2021/05/31 01:02:42;;;;;;;12.17;6.03;;;;;;;;;;13012203;22;20174;-83
2021/05/31 01:07:46;;;;;;;9.60;6.10;;;;;;;;;;13013067;22;20205;-83
2021/05/31 01:12:52;;;;;;;11.63;6.03;;;;;;;;;;13037956;22;20170;-83
2021/05/31 01:17:59;;;;;;;11.27;6.83;;;;;;;;;;13011987;22;20173;-83
2021/05/31 01:23:04;;;;;;;10.93;6.57;;;;;;;;;;13039666;22;20335;-83
2021/05/31 01:28:26;;;;;;;10.93;6.30;;;;;;;;;;13038718;22;21000;-82
2021/05/31 01:33:33;;;;;;;11.40;6.60;;;;;;;;;;13037254;22;20178;-83
2021/05/31 01:38:37;;;;;;;15.67;7.10;;;;;;;;;;13036604;22;20209;-83
2021/05/31 01:43:40;;;;;;;13.53;6.63;;;;;;;;;;13037494;22;20178;-82
2021/05/31 01:48:44;;;;;;;12.23;6.80;;;;;;;;;;13033173;22;20206;-83
2021/05/31 01:53:47;;;;;;;11.03;6.50;;;;;;;;;;13016002;22;20285;-82
2021/05/31 01:58:51;;;;;;;13.47;6.60;;;;;;;;;;13037582;22;20185;-83
2021/05/31 02:03:54;;;;;;;14.07;6.93;;;;;;;;;;13037414;22;20196;-83
2021/05/31 02:08:57;;;;;;;13.13;7.00;;;;;;;;;;13039409;22;20213;-82
2021/05/31 02:14:02;;;;;;;12.73;6.63;;;;;;;;;;13042247;22;20181;-82
2021/05/31 02:19:06;;;;;;;9.60;6.50;;;;;;;;;;12988024;22;20174;-82
2021/05/31 02:24:10;;;;;;;13.87;7.03;;;;;;;;;;13039967;22;20516;-82
2021/05/31 02:29:13;;;;;;;12.73;7.20;;;;;;;;;;13037658;22;20511;-82
2021/05/31 02:34:17;;;;;;;17.93;7.30;;;;;;;;;;13037242;22;20184;-82
2021/05/31 02:39:19;;;;;;;12.43;6.90;;;;;;;;;;13018663;22;20173;-82
2021/05/31 02:44:21;;;;;;;15.30;7.67;;;;;;;;;;13039970;22;20184;-82
2021/05/31 02:49:25;;;;;;;12.27;7.53;;;;;;;;;;13033688;22;20710;-82
2021/05/31 02:54:28;;;;;;;14.73;7.90;;;;;;;;;;13038678;22;20208;-83
2021/05/31 02:59:30;;;;;;;12.33;7.60;;;;;;;;;;13036975;22;20511;-82
2021/05/31 03:04:34;;;;;;;12.40;6.93;;;;;;;;;;13032911;22;20177;-81
2021/05/31 03:09:36;;;;;;;14.77;7.70;;;;;;;;;;13037562;22;20676;-82
2021/05/31 03:14:39;;;;;;;12.83;7.90;;;;;;;;;;13012709;22;20285;-81
2021/05/31 03:19:42;;;;;;;14.37;7.70;;;;;;;;;;13012924;22;20181;-80
2021/05/31 03:24:45;;;;;;;12.97;7.80;;;;;;;;;;13034262;22;20184;-80
2021/05/31 03:29:47;;;;;;;14.17;8.03;;;;;;;;;;13034820;22;20662;-80
2021/05/31 03:34:51;;;;;;;16.03;8.13;;;;;;;;;;13029458;22;20177;-81
2021/05/31 03:39:53;;;;;;;14.97;7.80;;;;;;;;;;13014922;22;20173;-80
2021/05/31 03:44:56;;;;;;;14.37;7.83;;;;;;;;;;13012185;22;20174;-80
2021/05/31 03:49:59;;;;;;;13.13;8.27;;;;;;;;;;13032216;22;20212;-81
2021/05/31 03:55:02;;;;;;;12.53;7.80;;;;;;;;;;13033342;22;20663;-81
2021/05/31 04:00:05;;;;;;;15.80;8.00;;;;;;;;;;13012319;22;20532;-81
2021/05/31 04:05:11;;;;;;;15.77;8.50;;;;;;;;;;13028929;22;20208;-79
2021/05/31 04:15:34;;;;;;;17.97;8.90;;;;;;;;;;13011052;22;20162;-80
2021/05/31 04:20:38;;;;;;;16.83;8.47;;;;;;;;;;13011813;22;20188;-80
2021/05/31 04:25:40;;;;;;;14.13;8.20;;;;;;;;;;13032577;22;20198;-79
2021/05/31 04:30:43;;;;;;;15.43;8.80;;;;;;;;;;13036038;22;20188;-79
2021/05/31 04:35:47;;;;;;;15.40;8.97;;;;;;;;;;13030191;22;20658;-80
2021/05/31 04:40:49;;;;;;;18.13;9.53;;;;;;;;;;13035594;22;20238;-78
2021/05/31 04:45:51;;;;;;;18.50;9.80;;;;;;;;;;13035802;22;20189;-82
2021/05/31 04:50:56;;;;;;;17.50;9.60;;;;;;;;;;13039741;22;20181;-79
2021/05/31 04:56:00;;;;;;;14.13;9.17;;;;;;;;;;13036061;22;20197;-81
2021/05/31 05:01:03;;;;;;;16.47;9.60;;;;;;;;;;13015348;22;20757;-81
2021/05/31 05:06:06;;;;;;;18.30;9.43;;;;;;;;;;13038544;22;20212;-82
2021/05/31 05:11:09;;;;;;;16.03;9.80;;;;;;;;;;13017056;22;20174;-81
2021/05/31 05:16:11;;;;;;;15.53;10.20;;;;;;;;;;13035090;22;20178;-80
2021/05/31 05:21:16;;;;;;;17.93;10.77;;;;;;;;;;13016996;22;20642;-79
2021/05/31 05:26:19;;;;;;;17.00;9.80;;;;;;;;;;13014761;22;20405;-80
2021/05/31 05:31:22;;;;;;;17.30;10.13;;;;;;;;;;13035162;22;20178;-80
2021/05/31 05:36:31;;;;;;;19.67;9.97;;;;;;;;;;13037108;22;20185;-79
2021/05/31 05:41:44;;;;;;;14.77;9.60;;;;;;;;;;13036279;22;20517;-80
2021/05/31 05:46:48;;;;;;;17.20;9.40;;;;;;;;;;13014818;22;20276;-78
2021/05/31 05:51:52;;;;;;;18.07;9.57;;;;;;;;;;13036788;22;20538;-79
2021/05/31 05:56:55;;;;;;;17.63;9.60;;;;;;;;;;13037138;22;20193;-79
2021/05/31 06:01:57;;;;;;;15.33;8.97;;;;;;;;;;13011899;22;20181;-79
2021/05/31 06:07:01;;;;;;;14.80;9.47;;;;;;;;;;13016894;22;20750;-79
2021/05/31 06:12:03;;;;;;;18.57;9.27;;;;;;;;;;13014454;22;20174;-81
2021/05/31 06:17:06;;;;;;;15.97;8.70;;;;;;;;;;13038892;22;20603;-79
2021/05/31 06:22:10;;;;;;;13.60;8.03;;;;;;;;;;13037970;22;20646;-89
2021/05/31 06:27:13;;;;;;;13.33;7.40;;;;;;;;;;13039797;22;20718;-87
2021/05/31 06:32:16;;;;;;;16.17;8.30;;;;;;;;;;13034374;22;20178;-83
2021/05/31 06:37:20;;;;;;;14.30;7.63;;;;;;;;;;13038213;22;20173;-85
2021/05/31 06:42:23;;;;;;;11.67;6.93;;;;;;;;;;13037120;22;20784;-80
2021/05/31 06:47:25;;;;;;;14.73;7.20;;;;;;;;;;13034662;22;20201;-79
2021/05/31 06:52:29;;;;;;;13.00;7.10;;;;;;;;;;13039074;22;20225;-85
2021/05/31 07:03:03;;;;;;;11.70;6.47;;;;;;;;;;13015678;22;20178;-87
2021/05/31 07:08:07;;;;;;;12.10;6.57;;;;;;;;;;13016800;22;20537;-80
2021/05/31 07:18:49;;;;;;;9.37;6.13;;;;;;;;;;13008161;22;20347;-91
2021/05/31 07:23:53;;;;;;;14.47;6.33;;;;;;;;;;13038446;22;20193;-84
2021/05/31 07:28:56;;;;;;;13.03;6.23;;;;;;;;;;13033971;22;20629;-88
2021/05/31 07:33:58;;;;;;;13.73;6.57;;;;;;;;;;13011543;22;20169;-86
2021/05/31 07:39:03;;;;;;;16.33;5.80;;;;;;;;;;13041637;22;20262;-86
2021/05/31 07:44:05;;;;;;;13.70;5.90;;;;;;;;;;13034979;22;20184;-83
2021/05/31 07:49:08;;;;;;;23.10;7.00;;;;;;;;;;13024303;22;20209;-76
2021/05/31 07:54:12;;;;;;;19.57;7.10;;;;;;;;;;13003092;22;20193;-86
2021/05/31 07:59:15;;;;;;;13.47;6.60;;;;;;;;;;12963686;22;1299075;-82
2021/05/31 08:04:18;;;;;;;15.00;7.40;;;;;;;;;;12999905;22;20181;-78
2021/05/31 08:09:22;;;;;;;17.73;6.47;;;;;;;;;;13031450;22;20777;-89
2021/05/31 08:14:25;;;;;;;13.43;6.17;;;;;;;;;;13006128;22;20166;-83
2021/05/31 08:19:30;;;;;;;10.30;6.20;;;;;;;;;;13004335;22;20174;-81
2021/05/31 08:24:34;;;;;;;9.93;5.80;;;;;;;;;;13027507;22;20162;-81
2021/05/31 08:29:36;;;;;;;12.00;4.93;;;;;;;;;;13029199;22;20208;-79
2021/05/31 08:34:39;;;;;;;11.53;5.53;;;;;;;;;;13028116;22;20174;-85
2021/05/31 08:39:43;;;;;;;8.93;5.03;;;;;;;;;;13037370;22;20182;-77
2021/05/31 08:44:46;;;;;;;9.47;4.70;;;;;;;;;;13032743;22;20174;-89
2021/05/31 08:49:52;;;;;;;11.07;5.40;;;;;;;;;;13022526;22;21005;-78
2021/05/31 08:54:56;;;;;;;8.13;5.00;;;;;;;;;;13002372;22;20371;-78
2021/05/31 08:59:59;;;;;;;10.73;4.63;;;;;;;;;;13004802;22;20196;-78
2021/05/31 09:05:01;;;;;;;8.70;4.40;;;;;;;;;;12999803;22;20257;-82
2021/05/31 09:10:06;;;;;;;8.10;4.47;;;;;;;;;;13002065;22;20205;-85
2021/05/31 09:15:11;;;;;;;9.83;4.87;;;;;;;;;;13001091;22;20205;-83
2021/05/31 09:20:13;;;;;;;5.57;3.63;;;;;;;;;;13022534;22;20666;-81
2021/05/31 09:25:24;;;;;;;10.10;4.20;;;;;;;;;;12950554;22;20210;-79
2021/05/31 09:30:31;;;;;;;7.93;3.60;;;;;;;;;;12942396;22;20288;-78
2021/05/31 09:35:43;;;;;;;7.30;4.10;;;;;;;;;;12965217;22;20209;-76
2021/05/31 09:46:35;;;;;;;6.10;3.80;;;;;;;;;;12941389;22;20651;-77
2021/05/31 09:51:49;;;;;;;13.97;3.37;;;;;;;;;;12966518;22;20185;-77
2021/05/31 09:57:20;;;;;;;7.30;3.20;;;;;;;;;;12945662;22;20254;-78
2021/05/31 10:02:36;;;;;;;5.87;3.13;;;;;;;;;;12962642;22;20190;-79
2021/05/31 10:07:45;;;;;;;9.23;3.67;;;;;;;;;;12966618;22;20280;-77
2021/05/31 10:12:49;;;;;;;6.10;3.43;;;;;;;;;;12965965;22;20198;-78
2021/05/31 10:17:53;;;;;;;5.17;3.13;;;;;;;;;;12964618;22;20277;-78
2021/05/31 10:23:22;;;;;;;4.47;3.40;;;;;;;;;;12961298;22;20191;-79
2021/05/31 10:28:28;;;;;;;8.37;3.90;;;;;;;;;;13093355;22;20642;-79
2021/05/31 10:33:33;;;;;;;6.80;3.53;;;;;;;;;;13095141;22;20180;-78
2021/05/31 10:38:38;;;;;;;9.77;3.63;;;;;;;;;;13097744;22;20208;-78
2021/05/31 10:43:48;;;;;;;6.83;3.20;;;;;;;;;;13079938;22;20173;-78
2021/05/31 10:48:52;;;;;;;6.53;3.10;;;;;;;;;;13093720;22;20541;-78
2021/05/31 10:53:55;;;;;;;10.03;3.47;;;;;;;;;;13096485;22;20173;-78
2021/05/31 10:58:59;;;;;;;4.97;3.37;;;;;;;;;;13096381;22;20694;-78
2021/05/31 11:04:04;;;;;;;6.20;4.10;;;;;;;;;;13090682;22;20280;-78
2021/05/31 11:09:08;;;;;;;27.60;4.90;;;;;;;;;;13095714;22;20654;-73
2021/05/31 11:14:12;;;;;;;10.20;4.93;;;;;;;;;;13075091;22;20275;-77
2021/05/31 11:19:14;;;;;;;13.03;5.30;;;;;;;;;;13096106;22;20627;-80
2021/05/31 11:24:30;;;;;;;14.83;5.13;;;;;;;;;;13090172;22;20189;-82
2021/05/31 11:29:47;;;;;;;10.23;4.67;;;;;;;;;;12976639;22;20206;-83
2021/05/31 11:34:53;;;;;;;7.47;4.13;;;;;;;;;;13006436;22;20197;-81
2021/05/31 11:39:56;;;;;;;10.77;5.13;;;;;;;;;;13032244;22;20267;-83
2021/05/31 11:45:00;;;;;;;11.80;4.60;;;;;;;;;;13008394;22;20959;-83
2021/05/31 11:50:03;;;;;;;10.60;4.90;;;;;;;;;;13006204;22;20653;-81
2021/05/31 11:55:06;;;;;;;7.17;4.90;;;;;;;;;;13062173;22;20192;-79
2021/05/31 12:00:10;;;;;;;7.03;4.30;;;;;;;;;;13072224;22;20192;-79
2021/05/31 12:05:13;;;;;;;10.47;4.73;;;;;;;;;;13092552;22;20177;-80
2021/05/31 12:10:15;;;;;;;6.20;4.00;;;;;;;;;;13099992;22;20182;-80
2021/05/31 12:15:19;;;;;;;10.00;4.63;;;;;;;;;;13096498;22;20173;-80
2021/05/31 12:20:22;;;;;;;8.60;4.07;;;;;;;;;;13097165;22;20247;-79
2021/05/31 12:25:24;;;;;;;8.07;4.13;;;;;;;;;;13071079;22;20670;-83
2021/05/31 12:30:28;;;;;;;6.00;3.90;;;;;;;;;;13091497;22;20184;-80
2021/05/31 12:35:31;;;;;;;9.83;4.70;;;;;;;;;;13088593;22;20615;-80
2021/05/31 12:40:36;;;;;;;9.57;4.40;;;;;;;;;;13100726;22;20200;-79
2021/05/31 12:45:44;;;;;;;6.87;4.00;;;;;;;;;;13075179;22;20228;-81
2021/05/31 12:50:48;;;;;;;8.37;4.13;;;;;;;;;;13097505;22;20274;-80
2021/05/31 12:55:50;;;;;;;5.20;3.80;;;;;;;;;;13072692;22;20229;-79
2021/05/31 13:00:54;;;;;;;7.80;4.10;;;;;;;;;;13076440;22;20202;-79
2021/05/31 13:05:56;;;;;;;6.30;3.80;;;;;;;;;;13077146;22;20376;-79
2021/05/31 13:10:58;;;;;;;4.97;3.63;;;;;;;;;;13079516;22;20168;-79
2021/05/31 13:16:08;;;;;;;6.67;3.83;;;;;;;;;;13097461;22;20173;-78
2021/05/31 13:21:12;;;;;;;9.53;3.90;;;;;;;;;;13097883;22;20538;-78
2021/05/31 13:26:15;;;;;;;5.37;3.70;;;;;;;;;;13074527;22;20640;-77
2021/05/31 13:31:19;;;;;;;6.93;4.20;;;;;;;;;;13074034;22;20179;-78
2021/05/31 13:36:25;;;;;;;7.00;4.07;;;;;;;;;;13079064;22;20177;-79
2021/05/31 13:41:35;;;;;;;5.97;4.10;;;;;;;;;;13075659;22;20197;-79
2021/05/31 13:46:40;;;;;;;5.83;3.90;;;;;;;;;;13097552;22;20169;-79
2021/05/31 13:51:43;;;;;;;7.43;4.13;;;;;;;;;;13077637;22;20197;-79
2021/05/31 13:56:46;;;;;;;5.73;3.73;;;;;;;;;;13076542;22;20177;-78
2021/05/31 14:01:49;;;;;;;6.07;4.20;;;;;;;;;;13064707;22;20279;-87
2021/05/31 14:06:55;;;;;;;6.00;4.00;;;;;;;;;;13077823;22;20263;-91
2021/05/31 14:11:58;;;;;;;10.27;6.63;;;;;;;;;;13099660;22;20235;-82
2021/05/31 14:17:02;;;;;;;5.97;3.80;;;;;;;;;;13072121;22;20173;-77
2021/05/31 14:22:05;;;;;;;7.53;4.00;;;;;;;;;;13070789;22;20243;-78
2021/05/31 14:27:12;;;;;;;7.60;4.20;;;;;;;;;;13073039;22;20185;-74
2021/05/31 14:32:16;;;;;;;6.03;4.20;;;;;;;;;;13071170;22;20508;-79
2021/05/31 14:37:19;;;;;;;7.73;3.70;;;;;;;;;;13072737;22;20178;-78
2021/05/31 14:42:21;;;;;;;7.70;3.90;;;;;;;;;;13075233;22;20212;-78
2021/05/31 14:47:27;;;;;;;5.27;3.80;;;;;;;;;;13069810;22;20848;-77
2021/05/31 14:52:32;;;;;;;6.87;3.73;;;;;;;;;;13073778;22;20201;-77
2021/05/31 14:57:35;;;;;;;5.13;3.80;;;;;;;;;;13068167;22;20173;-76
2021/05/31 15:02:40;;;;;;;5.90;4.13;;;;;;;;;;13068744;22;20173;-80
2021/05/31 15:07:43;;;;;;;5.23;3.90;;;;;;;;;;13071811;22;20181;-86
2021/05/31 15:12:46;;;;;;;9.70;4.50;;;;;;;;;;13061271;22;20675;-80
2021/05/31 15:17:50;;;;;;;8.47;4.40;;;;;;;;;;13094340;22;20192;-79
2021/05/31 15:22:52;;;;;;;7.17;4.50;;;;;;;;;;13093128;22;20259;-86
2021/05/31 15:27:54;;;;;;;10.63;4.40;;;;;;;;;;13071913;22;20212;-76
2021/05/31 15:32:58;;;;;;;9.37;4.40;;;;;;;;;;13063239;22;21125;-78
2021/05/31 15:38:01;;;;;;;5.73;4.27;;;;;;;;;;13092058;22;20525;-78
2021/05/31 15:43:03;;;;;;;6.47;4.00;;;;;;;;;;13089383;22;20177;-83
2021/05/31 15:48:08;;;;;;;6.03;4.20;;;;;;;;;;13085477;22;20181;-76
2021/05/31 15:53:10;;;;;;;6.47;3.53;;;;;;;;;;13089281;22;20720;-80
2021/05/31 15:58:14;;;;;;;8.23;4.80;;;;;;;;;;13085555;22;20209;-79
2021/05/31 16:03:17;;;;;;;5.07;3.93;;;;;;;;;;13087116;22;20204;-72
2021/05/31 16:08:20;;;;;;;8.17;4.43;;;;;;;;;;13066791;22;20179;-82
2021/05/31 16:13:22;;;;;;;7.30;4.23;;;;;;;;;;13089483;22;20177;-77
2021/05/31 16:18:26;;;;;;;10.53;3.93;;;;;;;;;;13088759;22;20223;-79
2021/05/31 16:23:31;;;;;;;8.17;3.60;;;;;;;;;;13069038;22;20165;-79
2021/05/31 16:28:49;;;;;;;37.27;7.93;;;;;;;;;;13069247;22;20267;-79
2021/05/31 16:33:54;;;;;;;57.57;20.73;;;;;;;;;;13090937;22;20826;-77
2021/05/31 16:38:56;;;;;;;15.23;6.40;;;;;;;;;;13070485;22;20450;-84
2021/05/31 16:43:59;;;;;;;13.43;6.03;;;;;;;;;;13076686;22;20644;-77
2021/05/31 16:49:03;;;;;;;12.53;6.00;;;;;;;;;;13096172;22;20177;-73
2021/05/31 16:54:05;;;;;;;9.30;4.77;;;;;;;;;;13073851;22;20204;-77
2021/05/31 16:59:08;;;;;;;8.73;4.67;;;;;;;;;;13072544;22;20210;-83
2021/05/31 17:04:12;;;;;;;8.23;4.60;;;;;;;;;;13071225;22;20234;-78
2021/05/31 17:09:14;;;;;;;11.40;4.60;;;;;;;;;;13075460;22;20173;-79
2021/05/31 17:19:40;;;;;;;6.50;4.10;;;;;;;;;;13068391;22;20242;-80
2021/05/31 17:24:42;;;;;;;6.53;4.70;;;;;;;;;;13071177;22;20184;-80
2021/05/31 17:29:46;;;;;;;6.23;4.43;;;;;;;;;;13071400;22;20184;-80
2021/05/31 17:34:50;;;;;;;6.90;4.30;;;;;;;;;;13092915;22;20173;-78
2021/05/31 17:40:01;;;;;;;5.93;4.40;;;;;;;;;;13075299;22;20203;-80
2021/05/31 17:45:05;;;;;;;5.57;4.17;;;;;;;;;;13101452;22;20487;-79
2021/05/31 17:50:28;;;;;;;6.47;4.20;;;;;;;;;;13069780;22;20169;-77
2021/05/31 17:55:35;;;;;;;8.97;4.47;;;;;;;;;;13067171;22;20196;-76
2021/05/31 18:00:40;;;;;;;8.23;4.40;;;;;;;;;;13067792;22;20515;-77
2021/05/31 18:05:43;;;;;;;6.17;4.23;;;;;;;;;;13064615;22;20174;-87
2021/05/31 18:10:46;;;;;;;7.37;4.33;;;;;;;;;;13093832;22;20347;-76
2021/05/31 18:15:48;;;;;;;6.67;4.40;;;;;;;;;;13068274;22;20169;-76
2021/05/31 18:20:52;;;;;;;8.93;3.83;;;;;;;;;;13090815;22;20205;-76
2021/05/31 18:25:54;;;;;;;8.97;4.00;;;;;;;;;;13086919;22;20627;-76
2021/05/31 18:30:58;;;;;;;4.03;3.57;;;;;;;;;;13069110;22;20546;-75
2021/05/31 18:36:08;;;;;;;7.97;4.30;;;;;;;;;;13065797;22;20177;-74
2021/05/31 18:41:11;;;;;;;5.00;3.77;;;;;;;;;;13065836;22;20571;-76
2021/05/31 18:46:13;;;;;;;6.07;3.60;;;;;;;;;;13062372;22;20188;-76
2021/05/31 18:51:17;;;;;;;6.73;3.47;;;;;;;;;;13063393;22;20192;-88
2021/05/31 18:56:20;;;;;;;4.60;3.00;;;;;;;;;;13071142;22;20656;-77
2021/05/31 19:01:22;;;;;;;6.77;3.93;;;;;;;;;;13069857;22;20213;-77
2021/05/31 19:06:26;;;;;;;4.83;3.20;;;;;;;;;;13068415;22;20181;-86
2021/05/31 19:11:29;;;;;;;7.70;3.27;;;;;;;;;;13104611;22;20177;-76
2021/05/31 19:16:31;;;;;;;6.20;3.30;;;;;;;;;;13063609;22;20539;-84
2021/05/31 19:21:37;;;;;;;6.10;3.00;;;;;;;;;;13064340;22;20209;-77
2021/05/31 19:26:40;;;;;;;4.50;3.00;;;;;;;;;;13087958;22;20191;-77
2021/05/31 19:31:42;;;;;;;5.13;3.17;;;;;;;;;;13065418;22;20176;-78
2021/05/31 19:36:46;;;;;;;4.13;3.30;;;;;;;;;;13068862;22;20581;-77
2021/05/31 19:41:49;;;;;;;5.57;2.87;;;;;;;;;;13068014;22;20231;-76
2021/05/31 19:46:51;;;;;;;4.27;2.97;;;;;;;;;;13065816;22;20650;-76
2021/05/31 19:51:55;;;;;;;4.77;3.10;;;;;;;;;;13066365;22;20193;-77
2021/05/31 19:57:11;;;;;;;4.37;2.90;;;;;;;;;;13070361;22;20657;-77
2021/05/31 20:02:14;;;;;;;4.73;3.13;;;;;;;;;;13060069;22;20648;-77
2021/05/31 20:07:29;;;;;;;4.27;3.10;;;;;;;;;;13070179;22;20188;-77
2021/05/31 20:12:32;;;;;;;3.80;2.87;;;;;;;;;;13067908;22;20164;-79
2021/05/31 20:17:34;;;;;;;4.10;3.37;;;;;;;;;;13090743;22;20185;-78
2021/05/31 20:22:43;;;;;;;5.23;3.03;;;;;;;;;;13070714;22;20219;-76
2021/05/31 20:27:45;;;;;;;3.60;3.00;;;;;;;;;;13068133;22;20215;-76
2021/05/31 20:32:48;;;;;;;6.53;2.90;;;;;;;;;;13067142;22;20184;-79
2021/05/31 20:37:54;;;;;;;4.27;2.87;;;;;;;;;;13066409;22;20180;-77
2021/05/31 20:42:56;;;;;;;3.83;3.00;;;;;;;;;;13090699;22;20209;-78
2021/05/31 20:47:58;;;;;;;3.63;2.70;;;;;;;;;;13067252;22;20169;-76
2021/05/31 20:53:02;;;;;;;4.33;2.63;;;;;;;;;;13071873;22;20239;-77
2021/05/31 20:58:07;;;;;;;3.17;2.57;;;;;;;;;;13067051;22;20767;-77
2021/05/31 21:03:10;;;;;;;6.70;3.00;;;;;;;;;;13068346;22;20211;-77
2021/05/31 21:08:15;;;;;;;5.63;2.97;;;;;;;;;;13066586;22;20173;-77
2021/05/31 21:13:21;;;;;;;4.53;2.80;;;;;;;;;;13073837;22;20176;-77
2021/05/31 21:18:25;;;;;;;5.90;3.30;;;;;;;;;;13068825;22;20166;-78
2021/05/31 21:23:30;;;;;;;3.90;3.20;;;;;;;;;;13073816;22;20204;-76
2021/05/31 21:28:32;;;;;;;4.13;3.20;;;;;;;;;;13093681;22;20195;-76
2021/05/31 21:33:35;;;;;;;5.97;3.40;;;;;;;;;;13091512;22;20181;-76
2021/05/31 21:38:41;;;;;;;7.17;3.40;;;;;;;;;;13099302;22;20652;-77
2021/05/31 21:43:43;;;;;;;8.50;3.50;;;;;;;;;;13075127;22;20193;-77
2021/05/31 21:48:46;;;;;;;5.00;3.77;;;;;;;;;;13071460;22;20733;-77
2021/05/31 21:53:49;;;;;;;7.47;3.90;;;;;;;;;;13075248;22;20196;-75
2021/05/31 21:58:52;;;;;;;4.13;3.27;;;;;;;;;;13073729;22;20177;-78
2021/05/31 22:03:54;;;;;;;7.90;3.80;;;;;;;;;;13068776;22;20201;-76
2021/05/31 22:08:58;;;;;;;4.80;3.67;;;;;;;;;;13072402;22;20173;-77
2021/05/31 22:14:15;;;;;;;4.40;3.30;;;;;;;;;;13067095;22;20181;-77
2021/05/31 22:19:18;;;;;;;7.60;3.80;;;;;;;;;;13069286;22;20270;-76
2021/05/31 22:24:23;;;;;;;8.53;3.60;;;;;;;;;;13069505;22;20173;-76
2021/05/31 22:34:45;;;;;;;6.20;3.73;;;;;;;;;;13066975;22;20720;-76
2021/05/31 22:39:49;;;;;;;11.63;4.00;;;;;;;;;;13072076;22;20201;-77
2021/05/31 22:45:21;;;;;;;6.77;3.50;;;;;;;;;;13068787;22;20173;-76
2021/05/31 22:56:01;;;;;;;7.30;3.50;;;;;;;;;;13068686;22;20193;-76
2021/05/31 23:17:25;;;;;;;8.00;3.60;;;;;;;;;;13063756;22;20169;-76
2021/05/31 23:22:28;;;;;;;6.27;3.43;;;;;;;;;;13070268;22;20208;-77
2021/05/31 23:27:33;;;;;;;8.03;3.13;;;;;;;;;;13063449;22;20188;-77
2021/05/31 23:32:35;;;;;;;5.07;3.30;;;;;;;;;;13066942;22;20231;-77
2021/05/31 23:37:37;;;;;;;4.67;3.13;;;;;;;;;;13067787;22;20579;-77
2021/05/31 23:42:41;;;;;;;4.80;3.40;;;;;;;;;;13068662;22;20690;-77
2021/05/31 23:47:44;;;;;;;3.60;2.77;;;;;;;;;;13086177;22;20173;-77
2021/05/31 23:52:47;;;;;;;3.30;2.73;;;;;;;;;;13089845;22;20197;-77
2021/05/31 23:57:52;;;;;;;5.80;2.70;;;;;;;;;;13066125;22;20519;-77
